CheckWX is a tool to help pilots better visualize weather data.  It is not intended as a substitute for an official pre-flight weather briefing.

10:42:34 UTC

KSME TAF
Lake Cumberland Regional Airport
Somerset, Kentucky, USA
KSME 180537Z 1806/1906 19006KT P6SM SCT080 BKN250 WS020/21035KT FM181300 19008KT P6SM VCSH BKN100 FM181600 20012G25KT P6SM VCSH SCT100 FM182300 19010KT P6SM BKN100 FM190400 18010KT 6SM -SHRA BR BKN045

Apr-18@
06:00 UTC

Apr-18 @ 06:00 UTC

Apr-18@
13:00 UTC

Apr-18 @ 13:00 UTC

KSME 180537Z 1806/1906 19006KT P6SM SCT080 BKN250 WS020/21035KT
Wind
  • 190° at 6 KTS
Cloud Levels
  • Scattered at 8,000' AGL
  • Broken at 25,000' AGL

Apr-18@
13:00 UTC

Apr-18 @ 13:00 UTC

Apr-18@
16:00 UTC

Apr-18 @ 16:00 UTC

FM181300 19008KT P6SM VCSH BKN100

From

From Standard forecast or significant change

Wind
  • 190° at 8 KTS
Cloud Levels
  • Broken at 10,000' AGL

Apr-18@
16:00 UTC

Apr-18 @ 16:00 UTC

Apr-18@
23:00 UTC

Apr-18 @ 23:00 UTC

FM181600 20012G25KT P6SM VCSH SCT100

From

From Standard forecast or significant change

Wind
  • 200° at 12 KTS
  • {Gusting to 25 KTS
Cloud Levels
  • Scattered at 10,000' AGL

Apr-18@
23:00 UTC

Apr-18 @ 23:00 UTC

Apr-19@
04:00 UTC

Apr-19 @ 04:00 UTC

FM182300 19010KT P6SM BKN100

From

From Standard forecast or significant change

Wind
  • 190° at 10 KTS
Cloud Levels
  • Broken at 10,000' AGL

Apr-19@
04:00 UTC

Apr-19 @ 04:00 UTC

Apr-19@
06:00 UTC

Apr-19 @ 06:00 UTC

FM190400 18010KT 6SM -SHRA BR BKN045

From

From Standard forecast or significant change

Wind
  • 180° at 10 KTS
Conditions
Light Rain, Mist
Cloud Levels
  • Broken at 4,500' AGL